Time;durP1;ratioP1;P1;durP2;ratioP2;P2;SDS_P1;SDS_P2;PMS_P1;PMS_P2;Temp;Humidity;BMP_temperature;BMP_pressure;BME280_temperature;BME280_humidity;BME280_pressure;Samples;Min_cycle;Max_cycle;Signal;HPM_P1;HPM_P2
2023/01/06 00:02:21;;;;;;;5.10;1.60;;;;;;;5.31;65.60;98839.72;4967538;28;20459;-70
2023/01/06 00:04:46;;;;;;;2.97;1.17;;;;;;;5.29;65.43;98844.63;4966939;28;20068;-69
2023/01/06 00:07:12;;;;;;;1.65;1.08;;;;;;;5.26;65.24;98840.47;4967036;28;20037;-70
2023/01/06 00:09:37;;;;;;;5.70;1.50;;;;;;;5.24;65.13;98842.63;4966755;28;20420;-70
2023/01/06 00:12:03;;;;;;;3.20;1.50;;;;;;;5.20;65.19;98836.88;4967380;28;20464;-70
2023/01/06 00:14:30;;;;;;;4.25;1.38;;;;;;;5.18;65.09;98833.59;4977323;28;20467;-70
2023/01/06 00:16:55;;;;;;;2.15;1.50;;;;;;;5.15;65.00;98833.25;4976482;28;20030;-70
2023/01/06 00:19:20;;;;;;;2.33;1.05;;;;;;;5.14;64.97;98834.31;4966375;28;20015;-70
2023/01/06 00:21:46;;;;;;;1.60;1.02;;;;;;;5.07;64.95;98835.34;4966688;28;20027;-70
2023/01/06 00:24:11;;;;;;;3.13;1.20;;;;;;;5.00;64.67;98837.44;4966081;28;20023;-70
2023/01/06 00:26:37;;;;;;;4.70;1.00;;;;;;;4.90;64.87;98843.50;4966441;28;21248;-70
2023/01/06 00:29:03;;;;;;;2.42;0.90;;;;;;;4.86;65.20;98847.00;4966838;28;20026;-69
2023/01/06 00:31:28;;;;;;;2.38;1.10;;;;;;;4.82;65.02;98860.28;4967000;28;20027;-69
2023/01/06 00:33:56;;;;;;;2.10;1.27;;;;;;;4.80;64.81;98867.00;4966346;28;20030;-70
2023/01/06 00:36:21;;;;;;;2.33;1.10;;;;;;;4.77;65.33;98873.78;4982078;28;20035;-70
2023/01/06 00:38:48;;;;;;;3.05;1.50;;;;;;;4.76;64.96;98870.22;5063832;28;20037;-70
2023/01/06 00:43:59;;;;;;;4.13;2.20;;;;;;;4.71;65.49;98882.91;4971162;28;20130;-70
2023/01/06 00:46:27;;;;;;;4.20;1.23;;;;;;;4.68;64.93;98894.28;4969668;28;20030;-71
2023/01/06 00:48:54;;;;;;;4.07;1.30;;;;;;;4.62;65.13;98896.91;4971257;28;20027;-70
2023/01/06 00:51:19;;;;;;;3.47;1.33;;;;;;;4.61;65.14;98899.88;4970551;28;20530;-69
2023/01/06 00:53:44;;;;;;;4.40;2.03;;;;;;;4.61;65.59;98908.03;5004047;28;20056;-70
2023/01/06 00:56:10;;;;;;;5.13;2.35;;;;;;;4.63;65.91;98916.75;4969280;28;20067;-70
2023/01/06 00:58:35;;;;;;;4.03;1.95;;;;;;;4.65;65.83;98922.78;4971275;28;20383;-70
2023/01/06 01:01:05;;;;;;;2.65;1.60;;;;;;;4.70;65.38;98928.25;4990392;28;20027;-70
2023/01/06 01:03:32;;;;;;;2.80;1.30;;;;;;;4.74;65.30;98926.69;4970563;28;20035;-69
2023/01/06 01:06:01;;;;;;;3.75;2.47;;;;;;;4.76;65.21;98927.28;4967899;28;20537;-70
2023/01/06 01:08:27;;;;;;;4.28;2.03;;;;;;;4.79;65.74;98933.28;4968992;28;20524;-70
2023/01/06 01:10:53;;;;;;;3.35;2.10;;;;;;;4.82;65.76;98924.66;4969847;28;20039;-70
2023/01/06 01:13:19;;;;;;;3.20;1.70;;;;;;;4.82;66.13;98940.97;5031299;28;20029;-70
2023/01/06 01:15:44;;;;;;;2.90;1.60;;;;;;;4.87;65.69;98933.72;5072129;28;20093;-71
2023/01/06 01:18:09;;;;;;;2.95;1.10;;;;;;;4.92;65.31;98949.28;5072337;28;20021;-71
2023/01/06 01:20:35;;;;;;;4.10;1.42;;;;;;;4.95;65.66;98937.09;4977115;28;20124;-71
2023/01/06 01:23:00;;;;;;;3.28;1.50;;;;;;;4.96;65.44;98938.72;4970232;28;20042;-70
2023/01/06 01:25:25;;;;;;;5.03;1.60;;;;;;;4.94;65.54;98936.28;4970843;28;20080;-70
2023/01/06 01:27:51;;;;;;;3.83;1.50;;;;;;;4.91;65.49;98947.63;4973038;28;20486;-71
2023/01/06 01:30:16;;;;;;;2.58;1.23;;;;;;;4.85;65.07;98940.47;4970031;28;20498;-70
2023/01/06 01:32:42;;;;;;;1.98;0.90;;;;;;;4.79;65.21;98947.72;4970616;28;20158;-70
2023/01/06 01:35:08;;;;;;;3.15;1.30;;;;;;;4.75;64.97;98941.94;5041044;28;20051;-70
2023/01/06 01:37:33;;;;;;;3.13;2.00;;;;;;;4.73;65.48;98951.41;4984908;28;20066;-71
2023/01/06 01:39:59;;;;;;;3.03;1.20;;;;;;;4.68;65.16;98954.03;4968845;28;20529;-70
2023/01/06 01:42:24;;;;;;;5.63;1.48;;;;;;;4.61;65.12;98954.22;4970358;28;20118;-71
2023/01/06 01:45:02;;;;;;;3.47;1.52;;;;;;;4.50;65.04;98955.09;4970840;28;20034;-71
2023/01/06 01:48:04;;;;;;;2.63;1.20;;;;;;;4.41;65.28;98952.75;4967636;28;20070;-71
2023/01/06 01:50:43;;;;;;;3.50;1.50;;;;;;;4.34;65.25;98957.50;4969165;28;20315;-70
2023/01/06 01:53:35;;;;;;;2.92;1.50;;;;;;;4.26;64.92;98964.16;4969616;28;20069;-70
2023/01/06 01:56:05;;;;;;;7.60;1.50;;;;;;;4.23;65.51;98964.66;5021242;28;20101;-71
2023/01/06 01:58:42;;;;;;;3.83;1.17;;;;;;;4.19;65.47;98976.25;4966894;28;20027;-70
2023/01/06 02:01:08;;;;;;;5.75;2.15;;;;;;;4.14;65.34;98979.66;4965436;28;20548;-71
2023/01/06 02:03:34;;;;;;;7.97;3.92;;;;;;;4.08;65.18;98986.91;4969284;28;20039;-71
2023/01/06 02:06:04;;;;;;;4.75;1.83;;;;;;;4.06;65.11;98985.50;4967534;28;20080;-71
2023/01/06 02:08:36;;;;;;;3.08;1.38;;;;;;;4.02;65.04;98982.41;4969970;28;20444;-71
2023/01/06 02:11:04;;;;;;;3.25;1.40;;;;;;;3.99;66.15;98986.44;4969684;28;20062;-69
2023/01/06 02:13:31;;;;;;;2.35;1.63;;;;;;;3.92;65.47;98980.31;4969096;28;20114;-70
2023/01/06 02:16:22;;;;;;;3.50;1.65;;;;;;;3.87;65.17;98981.03;5050816;28;20036;-70
2023/01/06 02:19:19;;;;;;;4.97;2.63;;;;;;;3.84;65.91;98981.53;4969275;28;20061;-70
2023/01/06 02:21:44;;;;;;;3.65;1.90;;;;;;;3.80;65.27;98977.66;4967388;28;20027;-70
2023/01/06 02:24:24;;;;;;;4.28;2.50;;;;;;;3.75;65.93;98977.53;4975593;28;20407;-69
2023/01/06 02:26:56;;;;;;;3.22;1.70;;;;;;;3.71;65.35;98979.88;4968700;28;20030;-70
2023/01/06 02:29:46;;;;;;;5.30;2.10;;;;;;;3.65;66.11;98983.56;5018617;28;20040;-69
2023/01/06 02:32:37;;;;;;;5.65;1.58;;;;;;;3.60;65.78;98978.03;4968616;28;20529;-70
2023/01/06 02:35:31;;;;;;;4.78;1.98;;;;;;;3.56;65.29;98985.81;4964774;28;20574;-69
2023/01/06 02:38:34;;;;;;;2.58;1.60;;;;;;;3.54;65.59;98977.06;4968711;28;20035;-69
2023/01/06 02:41:33;;;;;;;1.95;1.40;;;;;;;3.52;65.45;98989.22;4967548;28;20058;-70
2023/01/06 02:44:07;;;;;;;3.20;2.08;;;;;;;3.50;65.86;98984.03;4969301;28;20070;-69
2023/01/06 02:46:47;;;;;;;4.38;1.88;;;;;;;3.50;65.52;98997.59;4968905;28;20027;-69
2023/01/06 02:49:20;;;;;;;4.03;1.83;;;;;;;3.52;66.25;98998.19;4965476;28;20026;-70
2023/01/06 02:52:18;;;;;;;3.13;1.50;;;;;;;3.51;65.96;99012.81;4967810;28;20035;-69
2023/01/06 02:54:48;;;;;;;3.35;1.30;;;;;;;3.49;65.40;98995.94;4969020;28;20059;-69
2023/01/06 02:57:13;;;;;;;3.22;1.73;;;;;;;3.47;66.30;99008.09;4967408;28;20083;-69
2023/01/06 02:59:48;;;;;;;6.65;3.20;;;;;;;3.45;66.17;99002.94;4983929;28;20038;-70
2023/01/06 03:02:17;;;;;;;4.35;2.00;;;;;;;3.43;65.79;99011.28;4968812;28;20405;-70
2023/01/06 03:04:46;;;;;;;3.80;2.00;;;;;;;3.43;66.28;99000.44;4968267;28;20485;-69
2023/01/06 03:07:13;;;;;;;3.10;2.00;;;;;;;3.41;65.74;99004.47;4967817;28;20049;-70
2023/01/06 03:09:38;;;;;;;5.13;2.08;;;;;;;3.39;66.06;98998.44;4967897;28;20031;-69
2023/01/06 03:12:31;;;;;;;3.75;1.90;;;;;;;3.33;66.32;99005.59;4968045;28;20050;-69
2023/01/06 03:14:57;;;;;;;3.92;2.10;;;;;;;3.31;65.93;99009.63;4966962;28;20034;-69
2023/01/06 03:17:23;;;;;;;4.10;2.25;;;;;;;3.24;66.29;98998.91;4967326;28;20026;-70
2023/01/06 03:19:49;;;;;;;3.58;2.22;;;;;;;3.21;66.14;98993.97;4967742;28;20027;-69
2023/01/06 03:22:16;;;;;;;5.63;2.65;;;;;;;3.19;66.11;98990.66;5042592;28;20040;-70
2023/01/06 03:24:42;;;;;;;5.90;3.03;;;;;;;3.15;66.10;99000.31;5032592;28;20070;-70
2023/01/06 03:27:08;;;;;;;7.40;3.85;;;;;;;3.11;65.83;99000.78;4967300;28;20034;-69
2023/01/06 03:29:34;;;;;;;5.53;2.55;;;;;;;3.08;66.28;99000.41;4968513;28;20031;-69
2023/01/06 03:32:25;;;;;;;5.57;2.45;;;;;;;3.02;65.58;99007.59;4968508;28;20049;-69
2023/01/06 03:35:02;;;;;;;4.25;2.33;;;;;;;2.97;66.15;99004.75;4966634;28;20027;-70
2023/01/06 03:37:37;;;;;;;4.53;2.05;;;;;;;2.90;65.54;99004.88;4966432;28;20038;-70
2023/01/06 03:40:08;;;;;;;3.78;2.42;;;;;;;2.86;65.53;99006.38;4965828;28;20027;-70
2023/01/06 03:45:44;;;;;;;4.32;2.20;;;;;;;2.79;66.72;99017.31;4968597;28;20537;-70
2023/01/06 03:49:05;;;;;;;4.78;2.53;;;;;;;2.74;66.62;99014.50;4967989;28;20027;-69
2023/01/06 03:51:57;;;;;;;5.60;2.95;;;;;;;2.73;66.20;99014.69;4979427;28;20162;-70
2023/01/06 03:54:32;;;;;;;5.03;2.45;;;;;;;2.73;66.34;99018.25;4968800;28;20066;-70
2023/01/06 03:57:17;;;;;;;6.35;2.78;;;;;;;2.68;66.22;99018.09;4968771;28;20137;-70
2023/01/06 03:59:51;;;;;;;3.80;1.65;;;;;;;2.65;66.40;99016.66;4967643;28;20430;-69
2023/01/06 04:02:19;;;;;;;7.60;2.30;;;;;;;2.64;66.78;99023.19;4968847;28;20106;-69
2023/01/06 04:05:00;;;;;;;6.10;2.38;;;;;;;2.59;66.76;99019.47;4967269;28;20130;-70
2023/01/06 04:07:25;;;;;;;3.88;2.15;;;;;;;2.57;66.74;99010.75;4964880;28;20062;-69
2023/01/06 04:09:51;;;;;;;5.80;2.53;;;;;;;2.53;65.86;99000.38;4967159;28;20494;-69
2023/01/06 04:15:00;;;;;;;6.57;3.75;;;;;;;2.49;66.33;99001.09;5000864;28;20045;-69
2023/01/06 04:17:25;;;;;;;4.93;3.30;;;;;;;2.48;66.10;99004.84;4985575;28;20029;-70
2023/01/06 04:19:51;;;;;;;5.15;2.95;;;;;;;2.49;66.40;99004.63;5022175;28;20026;-70
2023/01/06 04:22:16;;;;;;;4.70;3.00;;;;;;;2.51;66.98;98996.28;4969995;28;20039;-70
2023/01/06 04:24:42;;;;;;;6.45;3.67;;;;;;;2.53;66.67;98997.69;4970624;28;20463;-70
2023/01/06 04:27:07;;;;;;;4.93;2.80;;;;;;;2.55;67.31;99005.59;4968062;28;20050;-70
2023/01/06 04:29:32;;;;;;;4.30;2.30;;;;;;;2.56;66.52;99009.13;4972459;28;20030;-69
2023/01/06 04:31:58;;;;;;;3.83;2.08;;;;;;;2.58;67.32;99018.69;4969786;28;20061;-70
2023/01/06 04:34:23;;;;;;;4.25;2.17;;;;;;;2.62;67.03;99017.16;4972055;28;20035;-70
2023/01/06 04:36:48;;;;;;;6.60;3.17;;;;;;;2.64;67.33;99019.63;4971561;28;20483;-69
2023/01/06 04:39:14;;;;;;;5.63;2.95;;;;;;;2.65;66.96;99021.28;4969605;28;20035;-69
2023/01/06 04:41:39;;;;;;;4.28;2.38;;;;;;;2.70;67.51;99023.28;4970519;28;20109;-70
2023/01/06 04:44:04;;;;;;;4.40;2.13;;;;;;;2.74;66.89;99025.31;4971701;28;20038;-70
2023/01/06 04:46:30;;;;;;;4.18;1.92;;;;;;;2.79;67.82;99027.31;4970829;28;20084;-70
2023/01/06 04:48:55;;;;;;;3.10;1.90;;;;;;;2.83;66.92;99021.22;5030931;28;20396;-70
2023/01/06 04:51:21;;;;;;;4.18;2.70;;;;;;;2.89;67.11;99019.47;5029534;28;20032;-69
2023/01/06 04:53:46;;;;;;;3.25;2.00;;;;;;;2.93;66.93;99023.38;4983391;28;20031;-69
2023/01/06 04:56:12;;;;;;;3.05;1.85;;;;;;;2.98;66.85;99030.78;4971050;28;20146;-69
2023/01/06 04:58:38;;;;;;;3.22;2.00;;;;;;;3.04;67.14;99029.88;4972138;28;20076;-69
2023/01/06 05:01:09;;;;;;;4.55;2.25;;;;;;;3.07;67.65;99034.81;4970107;28;20041;-70
2023/01/06 05:03:37;;;;;;;4.93;2.88;;;;;;;3.13;67.65;99042.03;4971193;28;20099;-69
2023/01/06 05:06:04;;;;;;;7.88;4.15;;;;;;;3.16;68.03;99038.00;4970252;28;20030;-71
2023/01/06 05:08:30;;;;;;;7.80;4.57;;;;;;;3.20;67.45;99041.09;4971259;28;20471;-72
2023/01/06 05:11:01;;;;;;;105.85;39.30;;;;;;;3.22;67.45;99031.66;4967489;28;20088;-71
2023/01/06 05:13:27;;;;;;;46.15;19.80;;;;;;;3.23;66.98;99038.72;5006127;28;20105;-71
2023/01/06 05:15:52;;;;;;;35.83;18.25;;;;;;;3.25;67.42;99036.63;4971565;28;20490;-71
2023/01/06 05:18:18;;;;;;;30.15;16.38;;;;;;;3.23;67.79;99038.72;4972865;28;20061;-71
2023/01/06 05:20:43;;;;;;;29.08;17.23;;;;;;;3.21;67.09;99032.72;4971213;28;20386;-71
2023/01/06 05:23:08;;;;;;;26.73;14.70;;;;;;;3.21;67.70;99035.44;4970995;28;20043;-71
2023/01/06 05:25:34;;;;;;;26.88;14.38;;;;;;;3.20;67.47;99039.19;4969692;28;20068;-71
2023/01/06 05:27:59;;;;;;;30.90;12.38;;;;;;;3.13;67.36;99035.75;4992295;28;20025;-72
2023/01/06 05:30:24;;;;;;;22.95;9.13;;;;;;;3.08;67.27;99041.91;4970088;28;20415;-71
2023/01/06 05:32:50;;;;;;;16.92;7.03;;;;;;;3.04;67.28;99037.19;4970632;28;20035;-72
2023/01/06 05:35:15;;;;;;;8.52;3.53;;;;;;;3.01;66.89;99045.78;5007179;28;20048;-71
2023/01/06 05:37:40;;;;;;;14.30;5.40;;;;;;;2.98;67.16;99044.34;4971666;28;20041;-72
2023/01/06 05:40:06;;;;;;;14.65;4.97;;;;;;;2.96;67.79;99051.88;4969353;28;20026;-71
2023/01/06 05:42:32;;;;;;;13.88;4.30;;;;;;;2.93;67.93;99042.34;4969325;28;20112;-71
2023/01/06 05:44:57;;;;;;;7.07;3.33;;;;;;;2.93;67.57;99057.75;4970604;28;20035;-72
2023/01/06 05:47:22;;;;;;;6.25;3.08;;;;;;;2.94;67.31;99064.81;4975310;28;20035;-71
2023/01/06 05:49:48;;;;;;;5.80;3.35;;;;;;;2.96;67.56;99063.56;5014036;28;20036;-71
2023/01/06 05:52:13;;;;;;;6.05;3.70;;;;;;;2.99;68.02;99067.66;4971874;28;20039;-72
2023/01/06 05:54:39;;;;;;;10.63;3.60;;;;;;;3.01;67.31;99076.41;4969956;28;20039;-71
2023/01/06 05:57:06;;;;;;;8.07;4.28;;;;;;;3.03;68.07;99071.56;4970113;28;20035;-72
2023/01/06 05:59:32;;;;;;;6.13;3.10;;;;;;;3.06;68.09;99073.81;4969188;28;20387;-72
2023/01/06 06:01:57;;;;;;;6.38;3.50;;;;;;;3.08;68.10;99074.41;4968230;28;20027;-71
2023/01/06 06:04:22;;;;;;;14.15;5.53;;;;;;;3.12;67.64;99077.47;5010799;28;20038;-71
2023/01/06 06:06:48;;;;;;;13.35;5.50;;;;;;;3.18;68.26;99084.69;4984595;28;20031;-71
2023/01/06 06:09:13;;;;;;;11.80;4.75;;;;;;;3.20;68.21;99079.84;4987938;28;20034;-72
2023/01/06 06:11:38;;;;;;;7.30;3.40;;;;;;;3.24;68.26;99086.47;4991919;28;20120;-71
2023/01/06 06:14:07;;;;;;;5.70;3.25;;;;;;;3.27;67.55;99085.16;4969455;28;20042;-71
2023/01/06 06:16:33;;;;;;;5.63;2.95;;;;;;;3.30;67.82;99086.59;4968570;28;20403;-71
2023/01/06 06:18:59;;;;;;;4.20;3.40;;;;;;;3.33;67.28;99080.72;4969971;28;20034;-72
2023/01/06 06:21:27;;;;;;;6.45;3.20;;;;;;;3.35;68.08;99079.41;4969390;28;20047;-71
2023/01/06 06:23:53;;;;;;;7.35;3.78;;;;;;;3.37;68.04;99088.13;4970066;28;20671;-72
2023/01/06 06:26:19;;;;;;;10.02;4.53;;;;;;;3.39;68.15;99077.88;4969911;28;20027;-71
2023/01/06 06:28:44;;;;;;;14.02;6.38;;;;;;;3.42;67.45;99084.75;4968678;28;20035;-71
2023/01/06 06:31:13;;;;;;;6.97;4.30;;;;;;;3.46;68.31;99085.94;4969181;28;20102;-72
2023/01/06 06:33:39;;;;;;;6.43;3.55;;;;;;;3.49;67.49;99080.00;4993008;28;20027;-72
2023/01/06 06:36:10;;;;;;;5.03;3.70;;;;;;;3.51;67.89;99080.59;4968793;28;20605;-72
2023/01/06 06:38:35;;;;;;;8.07;4.28;;;;;;;3.54;67.84;99076.63;4967771;28;20098;-71
2023/01/06 06:41:01;;;;;;;7.60;4.43;;;;;;;3.56;67.42;99079.91;4966969;28;20117;-71
2023/01/06 06:43:26;;;;;;;6.90;4.75;;;;;;;3.61;67.46;99079.19;4967435;28;20031;-71
2023/01/06 06:45:52;;;;;;;6.65;4.45;;;;;;;3.62;67.76;99081.69;4969078;28;20046;-72
2023/01/06 06:48:17;;;;;;;4.13;3.05;;;;;;;3.60;68.10;99064.81;4967851;28;20397;-71
2023/01/06 06:50:42;;;;;;;5.68;2.90;;;;;;;3.60;68.00;99066.69;4965879;28;20141;-72
2023/01/06 06:53:08;;;;;;;3.10;2.80;;;;;;;3.55;67.29;99070.94;4968993;28;20031;-71
2023/01/06 06:55:33;;;;;;;6.25;2.97;;;;;;;3.55;67.58;99062.81;4969766;28;20387;-71
2023/01/06 06:57:59;;;;;;;5.10;2.40;;;;;;;3.55;67.56;99065.50;4970295;28;20030;-71
2023/01/06 07:00:25;;;;;;;3.88;2.25;;;;;;;3.60;67.92;99062.13;4969040;28;20030;-71
2023/01/06 07:02:50;;;;;;;2.72;2.42;;;;;;;3.62;67.37;99067.28;4966610;28;20391;-71
2023/01/06 07:05:16;;;;;;;5.95;4.53;;;;;;;3.64;67.44;99074.16;4969267;28;20122;-71
2023/01/06 07:07:42;;;;;;;8.90;5.38;;;;;;;3.65;67.32;99075.81;4968858;28;20030;-72
2023/01/06 07:10:12;;;;;;;14.70;6.55;;;;;;;3.67;67.46;99083.69;4967542;28;20035;-71
2023/01/06 07:12:37;;;;;;;10.65;5.28;;;;;;;3.68;67.66;99088.06;4998380;28;20459;-71
2023/01/06 07:15:03;;;;;;;10.00;5.93;;;;;;;3.68;67.23;99083.44;4977377;28;20090;-72
2023/01/06 07:17:28;;;;;;;9.65;6.10;;;;;;;3.71;67.38;99076.75;4968938;28;20031;-71
2023/01/06 07:19:54;;;;;;;14.00;9.25;;;;;;;3.74;67.99;99081.69;4968424;28;20042;-71
2023/01/06 07:22:20;;;;;;;10.80;6.95;;;;;;;3.77;67.85;99074.97;4968952;28;20117;-72
2023/01/06 07:24:45;;;;;;;13.15;8.10;;;;;;;3.79;67.42;99073.69;4975082;28;20400;-72
2023/01/06 07:27:10;;;;;;;33.58;18.42;;;;;;;3.82;67.88;99084.06;4977680;28;20027;-72
2023/01/06 07:29:36;;;;;;;47.20;22.85;;;;;;;3.85;68.23;99094.44;4987008;28;20027;-71
2023/01/06 07:32:01;;;;;;;32.55;16.52;;;;;;;3.91;67.66;99097.25;4968372;28;20080;-71
2023/01/06 07:34:27;;;;;;;22.48;11.65;;;;;;;3.94;68.21;99094.06;4969437;28;20084;-71
2023/01/06 07:36:52;;;;;;;18.48;9.98;;;;;;;3.94;67.39;99094.06;4967189;28;20034;-72
2023/01/06 07:39:17;;;;;;;16.45;8.38;;;;;;;3.95;68.09;99088.41;4969477;28;20030;-71
2023/01/06 07:41:43;;;;;;;17.25;9.02;;;;;;;3.97;67.73;99091.72;4962902;28;20027;-71
2023/01/06 07:44:08;;;;;;;32.13;15.07;;;;;;;4.00;68.10;99088.53;4969626;28;20098;-71
2023/01/06 07:46:33;;;;;;;35.67;17.55;;;;;;;4.01;67.80;99092.06;4970138;28;20454;-71
2023/01/06 07:48:59;;;;;;;41.03;21.13;;;;;;;4.00;68.03;99091.25;4981289;28;20456;-71
2023/01/06 07:51:24;;;;;;;38.92;21.33;;;;;;;3.99;68.19;99097.72;4968751;28;20053;-70
2023/01/06 07:53:49;;;;;;;60.95;30.30;;;;;;;4.01;68.24;99092.91;4969494;28;20033;-71
2023/01/06 07:56:15;;;;;;;63.95;32.15;;;;;;;4.06;67.56;99094.06;4965388;28;20058;-71
2023/01/06 07:58:40;;;;;;;57.30;30.00;;;;;;;4.11;68.44;99097.72;4998105;28;20027;-71
2023/01/06 08:01:07;;;;;;;44.00;23.15;;;;;;;4.16;68.35;99102.41;4966805;28;20414;-71
2023/01/06 08:03:33;;;;;;;38.35;21.63;;;;;;;4.16;67.48;99111.41;4965314;28;20379;-71
2023/01/06 08:05:58;;;;;;;34.63;18.15;;;;;;;4.17;68.28;99112.22;4969397;28;20126;-71
2023/01/06 08:08:24;;;;;;;29.80;15.05;;;;;;;4.21;68.50;99110.69;4968595;28;20046;-71
2023/01/06 08:10:49;;;;;;;24.50;13.40;;;;;;;4.20;67.98;99109.03;4966882;28;20030;-71
2023/01/06 08:13:14;;;;;;;18.65;9.85;;;;;;;4.17;67.48;99104.91;4978188;28;20046;-71
2023/01/06 08:15:40;;;;;;;20.67;8.88;;;;;;;4.16;67.43;99107.84;4981367;28;20035;-71
2023/01/06 08:18:06;;;;;;;18.90;8.43;;;;;;;4.22;68.29;99103.38;4965829;28;20030;-71
2023/01/06 08:20:32;;;;;;;15.93;8.23;;;;;;;4.25;67.71;99109.13;4966280;28;20027;-71
2023/01/06 08:22:58;;;;;;;17.92;9.77;;;;;;;4.28;68.33;99108.66;4967970;28;20023;-71
2023/01/06 08:25:24;;;;;;;14.68;8.90;;;;;;;4.31;68.10;99124.47;4967749;28;20122;-71
2023/01/06 08:27:49;;;;;;;31.20;21.10;;;;;;;4.34;68.19;99120.44;4966666;28;20472;-72
2023/01/06 08:30:20;;;;;;;19.50;12.98;;;;;;;4.37;67.51;99122.69;4966056;28;20475;-71
2023/01/06 08:32:46;;;;;;;16.05;10.02;;;;;;;4.39;67.96;99123.28;4965891;28;20031;-72
2023/01/06 08:35:11;;;;;;;15.88;8.60;;;;;;;4.41;67.70;99118.44;4965343;28;20129;-72
2023/01/06 08:37:37;;;;;;;16.05;9.23;;;;;;;4.44;67.49;99122.59;4965604;28;20122;-71
2023/01/06 08:40:03;;;;;;;15.05;9.52;;;;;;;4.44;68.00;99120.69;4968120;28;20050;-72
2023/01/06 08:42:28;;;;;;;15.77;10.38;;;;;;;4.45;68.02;99124.22;4967470;28;20023;-71
2023/01/06 08:44:54;;;;;;;17.95;9.10;;;;;;;4.47;67.37;99122.09;4967248;28;20061;-72
2023/01/06 08:47:19;;;;;;;9.95;5.30;;;;;;;4.45;67.48;99116.09;4966690;28;20034;-72
2023/01/06 08:49:44;;;;;;;8.00;4.47;;;;;;;4.45;67.70;99119.63;4966527;28;20688;-72
2023/01/06 08:52:10;;;;;;;7.97;4.47;;;;;;;4.46;67.97;99121.25;4970136;28;20031;-71
2023/01/06 08:54:35;;;;;;;7.65;5.70;;;;;;;4.45;67.81;99119.63;4970619;28;20058;-72
2023/01/06 08:57:00;;;;;;;7.18;5.10;;;;;;;4.50;67.78;99120.78;4967050;28;20176;-71
2023/01/06 08:59:26;;;;;;;7.90;4.38;;;;;;;4.54;67.62;99124.69;4968181;28;20038;-73
2023/01/06 09:01:51;;;;;;;9.82;5.30;;;;;;;4.58;67.73;99120.41;4966384;28;20031;-71
2023/01/06 09:04:16;;;;;;;15.75;9.05;;;;;;;4.62;67.17;99124.31;4969538;28;20042;-71
2023/01/06 09:06:43;;;;;;;13.00;6.75;;;;;;;4.64;67.72;99113.19;4971018;28;20037;-71
2023/01/06 09:09:10;;;;;;;11.75;6.03;;;;;;;4.67;67.75;99116.25;4971272;28;20033;-71
2023/01/06 09:11:36;;;;;;;11.57;5.93;;;;;;;4.73;67.78;99119.91;4971018;28;20073;-71
2023/01/06 09:14:01;;;;;;;9.57;4.85;;;;;;;4.80;67.61;99109.72;4982565;28;20126;-72
2023/01/06 09:16:27;;;;;;;10.52;5.70;;;;;;;4.83;67.49;99105.69;5035269;28;20081;-71
2023/01/06 09:18:52;;;;;;;11.15;6.00;;;;;;;4.86;67.63;99105.19;4970910;28;20110;-72
2023/01/06 09:21:22;;;;;;;9.38;5.80;;;;;;;4.86;67.40;99107.91;4970484;28;20034;-71
2023/01/06 09:23:48;;;;;;;13.25;6.50;;;;;;;4.89;67.06;99100.09;4997482;28;20085;-71
2023/01/06 09:26:15;;;;;;;16.35;8.07;;;;;;;4.92;67.76;99096.06;4978578;28;20045;-71
2023/01/06 09:28:41;;;;;;;13.05;7.50;;;;;;;4.95;67.16;99095.59;4987831;28;20404;-71
2023/01/06 09:31:07;;;;;;;10.90;6.32;;;;;;;4.99;66.93;99101.34;4970111;28;20453;-71
2023/01/06 09:33:32;;;;;;;12.55;6.80;;;;;;;4.99;67.04;99080.44;4969140;28;20031;-72
2023/01/06 09:35:58;;;;;;;14.15;6.88;;;;;;;5.02;67.51;99074.50;4978172;28;20085;-72
2023/01/06 09:38:25;;;;;;;13.20;7.55;;;;;;;5.05;67.45;99074.03;4970477;28;20463;-71
2023/01/06 09:40:56;;;;;;;15.85;7.80;;;;;;;5.07;67.51;99071.88;4970100;28;20039;-72
2023/01/06 09:43:30;;;;;;;17.05;9.15;;;;;;;5.10;67.31;99072.44;4970755;28;20108;-71
2023/01/06 09:46:01;;;;;;;15.05;7.90;;;;;;;5.15;66.87;99075.25;4970004;28;20038;-71
2023/01/06 09:48:37;;;;;;;15.88;8.15;;;;;;;5.13;67.47;99070.06;4969142;28;20030;-71
2023/01/06 09:51:05;;;;;;;14.05;7.78;;;;;;;5.16;66.99;99064.16;4969242;28;20034;-71
2023/01/06 09:53:36;;;;;;;16.42;8.38;;;;;;;5.17;66.95;99060.38;4970785;28;20105;-72
2023/01/06 09:56:06;;;;;;;15.73;8.82;;;;;;;5.19;66.72;99044.63;4968740;28;20042;-71
2023/01/06 09:58:42;;;;;;;15.10;8.20;;;;;;;5.23;67.18;99039.50;4968688;28;20047;-72
2023/01/06 10:01:11;;;;;;;16.95;8.50;;;;;;;5.22;67.25;99035.13;4968573;28;20104;-71
2023/01/06 10:03:37;;;;;;;15.70;9.07;;;;;;;5.25;66.82;99037.38;4971025;28;20031;-71
2023/01/06 10:06:05;;;;;;;16.77;10.30;;;;;;;5.29;66.84;99035.81;4969419;28;20434;-71
2023/01/06 10:08:33;;;;;;;14.73;7.55;;;;;;;5.32;67.41;99024.44;4970297;28;20456;-71
2023/01/06 10:11:08;;;;;;;11.95;6.47;;;;;;;5.36;67.21;99024.75;5046169;28;20072;-71
2023/01/06 10:13:55;;;;;;;14.52;7.90;;;;;;;5.38;67.08;99033.47;4970233;28;20045;-71
2023/01/06 10:16:48;;;;;;;12.13;7.22;;;;;;;5.42;66.74;99028.38;4972350;28;20031;-70
2023/01/06 10:19:42;;;;;;;13.65;7.10;;;;;;;5.43;67.25;99014.53;4968123;28;20039;-71
2023/01/06 10:22:24;;;;;;;14.43;8.13;;;;;;;5.50;67.27;99014.38;4967431;28;20039;-71
2023/01/06 10:24:58;;;;;;;16.23;7.72;;;;;;;5.54;66.67;99001.09;4969662;28;20042;-71
2023/01/06 10:27:44;;;;;;;13.90;7.47;;;;;;;5.54;66.96;98999.16;4975517;28;20092;-71
2023/01/06 10:30:33;;;;;;;14.35;7.70;;;;;;;5.60;67.22;99000.91;5046553;28;20031;-70
2023/01/06 10:33:00;;;;;;;14.67;8.33;;;;;;;5.63;66.92;98996.88;5020756;28;20082;-70
2023/01/06 10:35:27;;;;;;;16.35;8.63;;;;;;;5.65;66.78;99000.97;4994751;28;20137;-71
2023/01/06 10:37:54;;;;;;;18.35;8.35;;;;;;;5.69;66.99;98998.59;4968734;28;20031;-70
2023/01/06 10:40:29;;;;;;;18.98;8.48;;;;;;;5.71;67.20;98990.16;4969660;28;20034;-70
2023/01/06 10:43:02;;;;;;;15.18;8.02;;;;;;;5.72;66.50;98989.09;4968885;28;20478;-70
2023/01/06 10:45:52;;;;;;;16.60;9.00;;;;;;;5.75;66.66;98983.97;5012727;28;20042;-71
2023/01/06 10:48:25;;;;;;;17.65;8.80;;;;;;;5.78;66.59;98983.47;4968373;28;20030;-70
2023/01/06 10:50:51;;;;;;;17.15;8.52;;;;;;;5.83;66.93;98969.09;4973945;28;20030;-69
2023/01/06 10:53:16;;;;;;;14.57;7.35;;;;;;;5.87;66.59;98964.81;5024948;28;20037;-69
2023/01/06 10:55:53;;;;;;;14.80;8.65;;;;;;;5.87;66.77;98962.09;4969792;28;20104;-70
2023/01/06 10:58:44;;;;;;;18.10;9.00;;;;;;;5.91;66.73;98954.22;4966976;28;20046;-69
2023/01/06 11:01:14;;;;;;;16.70;8.43;;;;;;;5.94;66.73;98949.09;4967731;28;20066;-69
2023/01/06 11:03:41;;;;;;;;;;;;;;;5.95;66.68;98950.72;4970079;28;20434;-69
2023/01/06 11:06:29;;;;;;;12.43;7.18;;;;;;;5.97;66.44;98950.50;4967827;28;19957;-69
2023/01/06 11:08:55;;;;;;;14.43;8.20;;;;;;;5.97;66.70;98945.84;4966826;28;20045;-69
2023/01/06 11:11:22;;;;;;;13.20;6.85;;;;;;;5.98;66.31;98952.13;4970114;28;20034;-69
2023/01/06 11:13:53;;;;;;;15.50;7.45;;;;;;;6.01;66.37;98954.38;4967799;28;20030;-69
2023/01/06 11:16:24;;;;;;;13.43;7.78;;;;;;;6.03;66.61;98951.41;4970624;28;20027;-68
2023/01/06 11:18:53;;;;;;;13.70;7.88;;;;;;;6.06;66.73;98945.44;4996835;28;20114;-69
2023/01/06 11:21:19;;;;;;;15.10;7.72;;;;;;;6.07;66.42;98944.38;4997174;28;20058;-69
2023/01/06 11:23:46;;;;;;;18.40;8.30;;;;;;;6.10;66.79;98943.84;5025554;28;20116;-69
2023/01/06 11:26:20;;;;;;;12.77;7.20;;;;;;;6.14;66.74;98942.28;5033228;28;20019;-69
2023/01/06 11:28:53;;;;;;;13.48;8.18;;;;;;;6.20;66.28;98937.69;5032663;28;20107;-69
2023/01/06 11:31:24;;;;;;;15.50;8.82;;;;;;;6.29;66.31;98935.38;5016650;28;20039;-70
2023/01/06 11:34:01;;;;;;;13.55;7.78;;;;;;;6.38;66.61;98934.63;4979693;28;20027;-70
2023/01/06 11:36:32;;;;;;;17.23;8.68;;;;;;;6.51;66.95;98927.13;4968113;28;20463;-70
2023/01/06 11:39:01;;;;;;;16.23;8.57;;;;;;;6.62;66.66;98930.78;4968701;28;20430;-72
2023/01/06 11:41:35;;;;;;;17.88;10.63;;;;;;;6.69;66.38;98929.47;4968848;28;20029;-70
2023/01/06 11:44:20;;;;;;;13.80;8.02;;;;;;;6.75;66.25;98924.06;4969142;28;20095;-71
2023/01/06 11:46:56;;;;;;;15.98;8.55;;;;;;;6.76;65.84;98917.53;5049236;28;20508;-70
2023/01/06 11:49:28;;;;;;;13.05;7.20;;;;;;;6.73;65.85;98918.84;5019205;28;20125;-71
2023/01/06 11:52:07;;;;;;;13.68;7.65;;;;;;;6.72;65.62;98919.97;4980777;28;20031;-71
2023/01/06 11:54:34;;;;;;;15.88;8.63;;;;;;;6.73;65.73;98909.88;4965543;28;20080;-71
2023/01/06 11:57:31;;;;;;;13.30;7.82;;;;;;;6.73;65.74;98902.50;4968003;28;20092;-71